Current Weather

Sauce Viejo

Sauce Viejo, Argentina (SAAV)

Report from: Saturday, January 28, 2023 10:30 AM -03
Current time: Monday, February 6, 2023 2:21 AM -03

Nearby weather
Weather history
Weather forecast

Temperature25.0°C (77.0°F)
Dew point22.0°C (71.6°F)
Winds 5 kts (2.6 m/s, 5.8 mph) South (180°)
Visibility6.2 mi. (10 km)
Clouds Few clouds 1,600 ft. (488 m)
Altimeter29.94 in.Hg (1014 mB)
Relative humidity83 %
Density altitude1,488 ft. (454 m)
Remarks Special weather observation
Flight conditions Visual Meteorological Conditions
Raw dataSPAG41 KWBC 281337 SPECI SAAV 281330Z 18005KT 9999 FEW016 25/22 Q1014 RMK PP///
An error has occurred. This application may no longer respond until reloaded. Reload 🗙